sensor_id;sensor_type;location;lat;lon;timestamp;P1;durP1;ratioP1;P2;durP2;ratioP2
80421;SDS011;69763;50.182;9.144;2023-06-10T00:00:34;12.15;;;7.15;;
80421;SDS011;69763;50.182;9.144;2023-06-10T00:02:59;9.57;;;7.20;;
80421;SDS011;69763;50.182;9.144;2023-06-10T00:05:25;11.20;;;7.32;;
80421;SDS011;69763;50.182;9.144;2023-06-10T00:07:51;10.95;;;7.90;;
80421;SDS011;69763;50.182;9.144;2023-06-10T00:10:17;10.43;;;7.22;;
80421;SDS011;69763;50.182;9.144;2023-06-10T00:12:42;10.88;;;6.57;;
80421;SDS011;69763;50.182;9.144;2023-06-10T00:15:08;11.13;;;7.38;;
80421;SDS011;69763;50.182;9.144;2023-06-10T00:19:59;11.67;;;7.83;;
80421;SDS011;69763;50.182;9.144;2023-06-10T00:22:24;13.35;;;8.32;;
80421;SDS011;69763;50.182;9.144;2023-06-10T00:24:51;15.32;;;7.38;;
80421;SDS011;69763;50.182;9.144;2023-06-10T00:27:16;8.63;;;7.10;;
80421;SDS011;69763;50.182;9.144;2023-06-10T00:29:42;11.32;;;7.38;;
80421;SDS011;69763;50.182;9.144;2023-06-10T00:32:07;11.95;;;7.53;;
80421;SDS011;69763;50.182;9.144;2023-06-10T00:34:33;17.25;;;7.70;;
80421;SDS011;69763;50.182;9.144;2023-06-10T00:36:58;11.80;;;7.35;;
80421;SDS011;69763;50.182;9.144;2023-06-10T00:39:24;10.63;;;7.70;;
80421;SDS011;69763;50.182;9.144;2023-06-10T00:41:50;12.18;;;7.78;;
80421;SDS011;69763;50.182;9.144;2023-06-10T00:44:16;10.90;;;7.47;;
80421;SDS011;69763;50.182;9.144;2023-06-10T00:46:41;14.65;;;8.18;;
80421;SDS011;69763;50.182;9.144;2023-06-10T00:49:07;11.45;;;7.75;;
80421;SDS011;69763;50.182;9.144;2023-06-10T00:51:33;11.07;;;7.65;;
80421;SDS011;69763;50.182;9.144;2023-06-10T00:53:58;11.27;;;7.63;;
80421;SDS011;69763;50.182;9.144;2023-06-10T00:56:24;12.02;;;8.38;;
80421;SDS011;69763;50.182;9.144;2023-06-10T00:58:51;11.07;;;8.00;;
80421;SDS011;69763;50.182;9.144;2023-06-10T01:01:16;11.40;;;7.63;;
80421;SDS011;69763;50.182;9.144;2023-06-10T01:03:42;10.40;;;7.53;;
80421;SDS011;69763;50.182;9.144;2023-06-10T01:06:09;10.77;;;8.52;;
80421;SDS011;69763;50.182;9.144;2023-06-10T01:08:40;14.82;;;8.35;;
80421;SDS011;69763;50.182;9.144;2023-06-10T01:11:12;10.40;;;7.78;;
80421;SDS011;69763;50.182;9.144;2023-06-10T01:13:43;11.48;;;7.70;;
80421;SDS011;69763;50.182;9.144;2023-06-10T01:16:12;10.10;;;7.88;;
80421;SDS011;69763;50.182;9.144;2023-06-10T01:18:37;10.18;;;7.25;;
80421;SDS011;69763;50.182;9.144;2023-06-10T01:21:05;12.55;;;7.90;;
80421;SDS011;69763;50.182;9.144;2023-06-10T01:23:32;10.60;;;7.63;;
80421;SDS011;69763;50.182;9.144;2023-06-10T01:25:59;10.55;;;7.82;;
80421;SDS011;69763;50.182;9.144;2023-06-10T01:28:30;12.23;;;7.82;;
80421;SDS011;69763;50.182;9.144;2023-06-10T01:31:03;11.07;;;7.80;;
80421;SDS011;69763;50.182;9.144;2023-06-10T01:33:35;12.07;;;7.97;;
80421;SDS011;69763;50.182;9.144;2023-06-10T01:36:04;11.50;;;7.57;;
80421;SDS011;69763;50.182;9.144;2023-06-10T01:38:32;11.05;;;8.10;;
80421;SDS011;69763;50.182;9.144;2023-06-10T01:41:01;13.48;;;8.40;;
80421;SDS011;69763;50.182;9.144;2023-06-10T01:43:28;13.27;;;8.07;;
80421;SDS011;69763;50.182;9.144;2023-06-10T01:45:53;12.65;;;8.50;;
80421;SDS011;69763;50.182;9.144;2023-06-10T01:48:19;11.82;;;7.93;;
80421;SDS011;69763;50.182;9.144;2023-06-10T01:50:44;10.25;;;7.38;;
80421;SDS011;69763;50.182;9.144;2023-06-10T01:53:10;11.80;;;7.80;;
80421;SDS011;69763;50.182;9.144;2023-06-10T01:55:36;15.35;;;8.00;;
80421;SDS011;69763;50.182;9.144;2023-06-10T01:58:02;10.55;;;7.22;;
80421;SDS011;69763;50.182;9.144;2023-06-10T02:00:27;13.30;;;8.93;;
80421;SDS011;69763;50.182;9.144;2023-06-10T02:02:52;14.48;;;7.93;;
80421;SDS011;69763;50.182;9.144;2023-06-10T02:05:18;11.40;;;7.35;;
80421;SDS011;69763;50.182;9.144;2023-06-10T02:07:44;16.13;;;8.27;;
80421;SDS011;69763;50.182;9.144;2023-06-10T02:10:09;10.57;;;7.70;;
80421;SDS011;69763;50.182;9.144;2023-06-10T02:12:36;12.50;;;8.45;;
80421;SDS011;69763;50.182;9.144;2023-06-10T02:15:01;13.48;;;8.27;;
80421;SDS011;69763;50.182;9.144;2023-06-10T02:17:27;14.50;;;8.98;;
80421;SDS011;69763;50.182;9.144;2023-06-10T02:19:52;10.07;;;7.63;;
80421;SDS011;69763;50.182;9.144;2023-06-10T02:22:19;11.45;;;8.18;;
80421;SDS011;69763;50.182;9.144;2023-06-10T02:24:45;12.82;;;8.85;;
80421;SDS011;69763;50.182;9.144;2023-06-10T02:27:10;12.32;;;8.60;;
80421;SDS011;69763;50.182;9.144;2023-06-10T02:29:37;9.88;;;7.30;;
80421;SDS011;69763;50.182;9.144;2023-06-10T02:32:03;12.35;;;7.90;;
80421;SDS011;69763;50.182;9.144;2023-06-10T02:34:28;12.13;;;8.20;;
80421;SDS011;69763;50.182;9.144;2023-06-10T02:36:54;10.98;;;8.02;;
80421;SDS011;69763;50.182;9.144;2023-06-10T02:39:20;11.93;;;7.65;;
80421;SDS011;69763;50.182;9.144;2023-06-10T02:41:46;11.63;;;7.40;;
80421;SDS011;69763;50.182;9.144;2023-06-10T02:44:11;12.27;;;7.70;;
80421;SDS011;69763;50.182;9.144;2023-06-10T02:46:38;13.95;;;8.32;;
80421;SDS011;69763;50.182;9.144;2023-06-10T02:49:03;16.23;;;7.88;;
80421;SDS011;69763;50.182;9.144;2023-06-10T02:51:29;12.85;;;7.60;;
80421;SDS011;69763;50.182;9.144;2023-06-10T02:53:54;10.80;;;8.23;;
80421;SDS011;69763;50.182;9.144;2023-06-10T02:56:19;11.23;;;8.15;;
80421;SDS011;69763;50.182;9.144;2023-06-10T02:58:45;10.50;;;7.93;;
80421;SDS011;69763;50.182;9.144;2023-06-10T03:01:10;12.15;;;7.88;;
80421;SDS011;69763;50.182;9.144;2023-06-10T03:03:37;17.38;;;8.55;;
80421;SDS011;69763;50.182;9.144;2023-06-10T03:06:02;11.98;;;7.72;;
80421;SDS011;69763;50.182;9.144;2023-06-10T03:08:28;14.25;;;8.05;;
80421;SDS011;69763;50.182;9.144;2023-06-10T03:10:53;11.45;;;7.70;;
80421;SDS011;69763;50.182;9.144;2023-06-10T03:13:18;11.75;;;8.23;;
80421;SDS011;69763;50.182;9.144;2023-06-10T03:15:44;10.95;;;7.93;;
80421;SDS011;69763;50.182;9.144;2023-06-10T03:18:09;11.77;;;8.32;;
80421;SDS011;69763;50.182;9.144;2023-06-10T03:20:36;11.68;;;8.05;;
80421;SDS011;69763;50.182;9.144;2023-06-10T03:23:01;10.80;;;7.90;;
80421;SDS011;69763;50.182;9.144;2023-06-10T03:25:26;14.15;;;7.45;;
80421;SDS011;69763;50.182;9.144;2023-06-10T03:27:52;13.68;;;8.57;;
80421;SDS011;69763;50.182;9.144;2023-06-10T03:30:17;12.23;;;7.85;;
80421;SDS011;69763;50.182;9.144;2023-06-10T03:32:43;13.98;;;7.20;;
80421;SDS011;69763;50.182;9.144;2023-06-10T03:35:08;11.57;;;7.65;;
80421;SDS011;69763;50.182;9.144;2023-06-10T03:37:35;14.05;;;8.52;;
80421;SDS011;69763;50.182;9.144;2023-06-10T03:40:00;9.25;;;6.85;;
80421;SDS011;69763;50.182;9.144;2023-06-10T03:42:25;10.75;;;7.22;;
80421;SDS011;69763;50.182;9.144;2023-06-10T03:44:51;11.95;;;7.88;;
80421;SDS011;69763;50.182;9.144;2023-06-10T03:47:17;11.57;;;7.90;;
80421;SDS011;69763;50.182;9.144;2023-06-10T03:49:43;11.23;;;8.07;;
80421;SDS011;69763;50.182;9.144;2023-06-10T03:52:08;12.38;;;7.53;;
80421;SDS011;69763;50.182;9.144;2023-06-10T03:54:35;13.60;;;8.18;;
80421;SDS011;69763;50.182;9.144;2023-06-10T03:57:00;10.32;;;7.47;;
80421;SDS011;69763;50.182;9.144;2023-06-10T03:59:26;11.63;;;8.05;;
80421;SDS011;69763;50.182;9.144;2023-06-10T04:01:51;13.25;;;6.70;;
80421;SDS011;69763;50.182;9.144;2023-06-10T04:04:16;11.45;;;7.68;;
80421;SDS011;69763;50.182;9.144;2023-06-10T04:06:42;13.23;;;7.63;;
80421;SDS011;69763;50.182;9.144;2023-06-10T04:09:07;10.43;;;6.60;;
80421;SDS011;69763;50.182;9.144;2023-06-10T04:11:34;8.88;;;7.45;;
80421;SDS011;69763;50.182;9.144;2023-06-10T04:13:59;10.30;;;6.80;;
80421;SDS011;69763;50.182;9.144;2023-06-10T04:16:24;13.07;;;7.13;;
80421;SDS011;69763;50.182;9.144;2023-06-10T04:18:50;10.80;;;7.30;;
80421;SDS011;69763;50.182;9.144;2023-06-10T04:21:15;10.18;;;7.15;;
80421;SDS011;69763;50.182;9.144;2023-06-10T04:23:41;12.38;;;7.10;;
80421;SDS011;69763;50.182;9.144;2023-06-10T04:26:06;9.02;;;7.05;;
80421;SDS011;69763;50.182;9.144;2023-06-10T04:28:33;11.55;;;6.82;;
80421;SDS011;69763;50.182;9.144;2023-06-10T04:30:59;10.43;;;7.20;;
80421;SDS011;69763;50.182;9.144;2023-06-10T04:33:24;11.27;;;7.07;;
80421;SDS011;69763;50.182;9.144;2023-06-10T04:35:49;19.50;;;7.57;;
80421;SDS011;69763;50.182;9.144;2023-06-10T04:38:15;11.25;;;7.25;;
80421;SDS011;69763;50.182;9.144;2023-06-10T04:40:40;12.40;;;7.45;;
80421;SDS011;69763;50.182;9.144;2023-06-10T04:43:06;8.93;;;6.57;;
80421;SDS011;69763;50.182;9.144;2023-06-10T04:45:32;10.75;;;7.43;;
80421;SDS011;69763;50.182;9.144;2023-06-10T04:47:58;8.90;;;6.88;;
80421;SDS011;69763;50.182;9.144;2023-06-10T04:50:23;12.30;;;8.10;;
80421;SDS011;69763;50.182;9.144;2023-06-10T04:52:49;8.73;;;6.70;;
80421;SDS011;69763;50.182;9.144;2023-06-10T04:55:14;12.80;;;8.05;;
80421;SDS011;69763;50.182;9.144;2023-06-10T04:57:40;13.88;;;7.15;;
80421;SDS011;69763;50.182;9.144;2023-06-10T05:00:06;10.75;;;6.95;;
80421;SDS011;69763;50.182;9.144;2023-06-10T05:02:33;11.70;;;7.07;;
80421;SDS011;69763;50.182;9.144;2023-06-10T05:04:59;7.90;;;6.07;;
80421;SDS011;69763;50.182;9.144;2023-06-10T05:07:24;13.48;;;7.00;;
80421;SDS011;69763;50.182;9.144;2023-06-10T05:09:49;9.13;;;6.82;;
80421;SDS011;69763;50.182;9.144;2023-06-10T05:12:15;10.68;;;7.05;;
80421;SDS011;69763;50.182;9.144;2023-06-10T05:14:40;13.35;;;7.22;;
80421;SDS011;69763;50.182;9.144;2023-06-10T05:17:06;11.80;;;6.70;;
80421;SDS011;69763;50.182;9.144;2023-06-10T05:19:32;10.82;;;6.65;;
80421;SDS011;69763;50.182;9.144;2023-06-10T05:21:58;11.55;;;6.93;;
80421;SDS011;69763;50.182;9.144;2023-06-10T05:24:23;9.43;;;6.35;;
80421;SDS011;69763;50.182;9.144;2023-06-10T05:26:48;13.73;;;6.90;;
80421;SDS011;69763;50.182;9.144;2023-06-10T05:29:14;10.68;;;6.80;;
80421;SDS011;69763;50.182;9.144;2023-06-10T05:31:39;10.15;;;7.15;;
80421;SDS011;69763;50.182;9.144;2023-06-10T05:34:05;11.68;;;7.63;;
80421;SDS011;69763;50.182;9.144;2023-06-10T05:36:31;12.38;;;6.88;;
80421;SDS011;69763;50.182;9.144;2023-06-10T05:38:57;9.30;;;6.07;;
80421;SDS011;69763;50.182;9.144;2023-06-10T05:41:22;9.75;;;6.07;;
80421;SDS011;69763;50.182;9.144;2023-06-10T05:43:47;10.00;;;6.65;;
80421;SDS011;69763;50.182;9.144;2023-06-10T05:46:13;9.13;;;6.80;;
80421;SDS011;69763;50.182;9.144;2023-06-10T05:48:38;8.10;;;6.15;;
80421;SDS011;69763;50.182;9.144;2023-06-10T05:51:04;7.28;;;5.60;;
80421;SDS011;69763;50.182;9.144;2023-06-10T05:53:30;11.73;;;7.22;;
80421;SDS011;69763;50.182;9.144;2023-06-10T05:55:56;11.10;;;5.38;;
80421;SDS011;69763;50.182;9.144;2023-06-10T05:58:21;11.98;;;7.97;;
80421;SDS011;69763;50.182;9.144;2023-06-10T06:00:47;12.40;;;7.18;;
80421;SDS011;69763;50.182;9.144;2023-06-10T06:03:12;8.90;;;6.60;;
80421;SDS011;69763;50.182;9.144;2023-06-10T06:05:38;10.63;;;6.32;;
80421;SDS011;69763;50.182;9.144;2023-06-10T06:08:03;11.00;;;6.75;;
80421;SDS011;69763;50.182;9.144;2023-06-10T06:10:30;10.07;;;6.38;;
80421;SDS011;69763;50.182;9.144;2023-06-10T06:12:55;9.38;;;6.32;;
80421;SDS011;69763;50.182;9.144;2023-06-10T06:15:21;11.50;;;6.47;;
80421;SDS011;69763;50.182;9.144;2023-06-10T06:17:46;9.30;;;6.20;;
80421;SDS011;69763;50.182;9.144;2023-06-10T06:20:12;10.10;;;6.10;;
80421;SDS011;69763;50.182;9.144;2023-06-10T06:22:37;7.80;;;6.05;;
80421;SDS011;69763;50.182;9.144;2023-06-10T06:27:29;7.70;;;5.90;;
80421;SDS011;69763;50.182;9.144;2023-06-10T06:29:55;10.23;;;6.15;;
80421;SDS011;69763;50.182;9.144;2023-06-10T06:34:45;8.53;;;5.83;;
80421;SDS011;69763;50.182;9.144;2023-06-10T06:39:36;9.75;;;6.18;;
80421;SDS011;69763;50.182;9.144;2023-06-10T06:42:02;8.57;;;6.07;;
80421;SDS011;69763;50.182;9.144;2023-06-10T06:44:29;10.70;;;6.05;;
80421;SDS011;69763;50.182;9.144;2023-06-10T06:46:54;10.10;;;6.00;;
80421;SDS011;69763;50.182;9.144;2023-06-10T06:49:20;13.07;;;5.65;;
80421;SDS011;69763;50.182;9.144;2023-06-10T06:51:45;10.02;;;6.65;;
80421;SDS011;69763;50.182;9.144;2023-06-10T06:54:10;7.82;;;5.97;;
80421;SDS011;69763;50.182;9.144;2023-06-10T06:56:36;7.85;;;6.30;;
80421;SDS011;69763;50.182;9.144;2023-06-10T06:59:01;9.55;;;6.32;;
80421;SDS011;69763;50.182;9.144;2023-06-10T07:01:28;11.85;;;6.28;;
80421;SDS011;69763;50.182;9.144;2023-06-10T07:03:53;7.95;;;5.70;;
80421;SDS011;69763;50.182;9.144;2023-06-10T07:06:19;11.50;;;5.88;;
80421;SDS011;69763;50.182;9.144;2023-06-10T07:08:44;11.85;;;5.95;;
80421;SDS011;69763;50.182;9.144;2023-06-10T07:11:09;10.55;;;5.63;;
80421;SDS011;69763;50.182;9.144;2023-06-10T07:13:35;7.63;;;6.05;;
80421;SDS011;69763;50.182;9.144;2023-06-10T07:16:00;8.00;;;6.07;;
80421;SDS011;69763;50.182;9.144;2023-06-10T07:18:27;9.73;;;5.82;;
80421;SDS011;69763;50.182;9.144;2023-06-10T07:20:52;8.65;;;5.90;;
80421;SDS011;69763;50.182;9.144;2023-06-10T07:23:18;8.15;;;5.97;;
80421;SDS011;69763;50.182;9.144;2023-06-10T07:25:43;7.97;;;6.20;;
80421;SDS011;69763;50.182;9.144;2023-06-10T07:28:08;10.00;;;6.13;;
80421;SDS011;69763;50.182;9.144;2023-06-10T07:30:34;9.70;;;5.75;;
80421;SDS011;69763;50.182;9.144;2023-06-10T07:32:59;9.05;;;5.63;;
80421;SDS011;69763;50.182;9.144;2023-06-10T07:35:26;8.98;;;6.00;;
80421;SDS011;69763;50.182;9.144;2023-06-10T07:37:51;7.47;;;5.45;;
80421;SDS011;69763;50.182;9.144;2023-06-10T07:40:17;9.70;;;6.03;;
80421;SDS011;69763;50.182;9.144;2023-06-10T07:42:42;9.27;;;6.47;;
80421;SDS011;69763;50.182;9.144;2023-06-10T07:45:08;7.78;;;6.00;;
80421;SDS011;69763;50.182;9.144;2023-06-10T07:47:33;10.75;;;6.22;;
80421;SDS011;69763;50.182;9.144;2023-06-10T07:49:59;12.02;;;6.38;;
80421;SDS011;69763;50.182;9.144;2023-06-10T07:52:26;8.98;;;5.68;;
80421;SDS011;69763;50.182;9.144;2023-06-10T07:54:51;8.35;;;6.18;;
80421;SDS011;69763;50.182;9.144;2023-06-10T07:57:17;8.13;;;6.00;;
80421;SDS011;69763;50.182;9.144;2023-06-10T07:59:44;8.35;;;6.25;;
80421;SDS011;69763;50.182;9.144;2023-06-10T08:02:09;11.18;;;6.07;;
80421;SDS011;69763;50.182;9.144;2023-06-10T08:04:34;8.63;;;6.93;;
80421;SDS011;69763;50.182;9.144;2023-06-10T08:07:00;7.68;;;6.45;;
80421;SDS011;69763;50.182;9.144;2023-06-10T08:09:27;7.43;;;5.80;;
80421;SDS011;69763;50.182;9.144;2023-06-10T08:11:52;8.68;;;6.35;;
80421;SDS011;69763;50.182;9.144;2023-06-10T08:14:17;9.57;;;6.28;;
80421;SDS011;69763;50.182;9.144;2023-06-10T08:16:43;15.48;;;6.50;;
80421;SDS011;69763;50.182;9.144;2023-06-10T08:19:09;9.55;;;5.95;;
80421;SDS011;69763;50.182;9.144;2023-06-10T08:21:34;7.45;;;5.78;;
80421;SDS011;69763;50.182;9.144;2023-06-10T08:23:59;7.20;;;5.90;;
80421;SDS011;69763;50.182;9.144;2023-06-10T08:26:26;12.07;;;6.50;;
80421;SDS011;69763;50.182;9.144;2023-06-10T08:28:51;10.32;;;6.55;;
80421;SDS011;69763;50.182;9.144;2023-06-10T08:31:17;9.57;;;6.13;;
80421;SDS011;69763;50.182;9.144;2023-06-10T08:33:42;8.73;;;6.05;;
80421;SDS011;69763;50.182;9.144;2023-06-10T08:36:07;9.50;;;6.63;;
80421;SDS011;69763;50.182;9.144;2023-06-10T08:38:33;9.90;;;5.82;;
80421;SDS011;69763;50.182;9.144;2023-06-10T08:40:59;8.73;;;6.40;;
80421;SDS011;69763;50.182;9.144;2023-06-10T08:43:29;9.00;;;6.03;;
80421;SDS011;69763;50.182;9.144;2023-06-10T08:45:59;8.15;;;6.57;;
80421;SDS011;69763;50.182;9.144;2023-06-10T08:48:26;6.75;;;6.05;;
80421;SDS011;69763;50.182;9.144;2023-06-10T08:50:53;8.32;;;6.63;;
80421;SDS011;69763;50.182;9.144;2023-06-10T08:53:19;10.05;;;5.75;;
80421;SDS011;69763;50.182;9.144;2023-06-10T08:55:46;7.32;;;5.97;;
80421;SDS011;69763;50.182;9.144;2023-06-10T08:58:15;7.22;;;6.20;;
80421;SDS011;69763;50.182;9.144;2023-06-10T09:00:42;10.32;;;6.25;;
80421;SDS011;69763;50.182;9.144;2023-06-10T09:03:08;8.93;;;5.90;;
80421;SDS011;69763;50.182;9.144;2023-06-10T09:05:34;6.45;;;5.80;;
80421;SDS011;69763;50.182;9.144;2023-06-10T09:08:00;11.38;;;5.70;;
80421;SDS011;69763;50.182;9.144;2023-06-10T09:10:26;7.82;;;6.05;;
80421;SDS011;69763;50.182;9.144;2023-06-10T09:12:51;8.98;;;6.82;;
80421;SDS011;69763;50.182;9.144;2023-06-10T09:15:17;7.80;;;5.82;;
80421;SDS011;69763;50.182;9.144;2023-06-10T09:17:44;7.57;;;6.25;;
80421;SDS011;69763;50.182;9.144;2023-06-10T09:20:10;8.73;;;5.60;;
80421;SDS011;69763;50.182;9.144;2023-06-10T09:22:36;8.80;;;5.53;;
80421;SDS011;69763;50.182;9.144;2023-06-10T09:25:02;9.68;;;5.97;;
80421;SDS011;69763;50.182;9.144;2023-06-10T09:27:29;7.53;;;5.82;;
80421;SDS011;69763;50.182;9.144;2023-06-10T09:29:55;7.03;;;5.13;;
80421;SDS011;69763;50.182;9.144;2023-06-10T09:32:20;10.43;;;5.28;;
80421;SDS011;69763;50.182;9.144;2023-06-10T09:34:47;8.63;;;5.20;;
80421;SDS011;69763;50.182;9.144;2023-06-10T09:37:13;7.57;;;5.22;;
80421;SDS011;69763;50.182;9.144;2023-06-10T09:39:45;6.15;;;4.88;;
80421;SDS011;69763;50.182;9.144;2023-06-10T09:42:25;7.50;;;5.20;;
80421;SDS011;69763;50.182;9.144;2023-06-10T09:44:50;7.28;;;4.97;;
80421;SDS011;69763;50.182;9.144;2023-06-10T09:47:19;7.85;;;5.20;;
80421;SDS011;69763;50.182;9.144;2023-06-10T09:49:45;7.75;;;5.20;;
80421;SDS011;69763;50.182;9.144;2023-06-10T09:52:12;6.45;;;4.82;;
80421;SDS011;69763;50.182;9.144;2023-06-10T09:54:37;8.68;;;5.20;;
80421;SDS011;69763;50.182;9.144;2023-06-10T09:57:06;6.85;;;5.00;;
80421;SDS011;69763;50.182;9.144;2023-06-10T09:59:33;7.78;;;5.40;;
80421;SDS011;69763;50.182;9.144;2023-06-10T10:01:58;13.70;;;5.40;;
80421;SDS011;69763;50.182;9.144;2023-06-10T10:04:23;10.27;;;5.22;;
80421;SDS011;69763;50.182;9.144;2023-06-10T10:06:49;8.48;;;5.43;;
80421;SDS011;69763;50.182;9.144;2023-06-10T10:09:16;6.05;;;5.15;;
80421;SDS011;69763;50.182;9.144;2023-06-10T10:11:41;8.85;;;4.93;;
80421;SDS011;69763;50.182;9.144;2023-06-10T10:14:08;7.57;;;5.90;;
80421;SDS011;69763;50.182;9.144;2023-06-10T10:16:35;9.00;;;5.93;;
80421;SDS011;69763;50.182;9.144;2023-06-10T10:19:06;6.82;;;5.38;;
80421;SDS011;69763;50.182;9.144;2023-06-10T10:21:35;7.07;;;5.95;;
80421;SDS011;69763;50.182;9.144;2023-06-10T10:24:05;9.55;;;6.43;;
80421;SDS011;69763;50.182;9.144;2023-06-10T10:26:35;10.55;;;6.32;;
80421;SDS011;69763;50.182;9.144;2023-06-10T10:29:05;7.35;;;5.45;;
80421;SDS011;69763;50.182;9.144;2023-06-10T10:31:35;7.47;;;5.45;;
80421;SDS011;69763;50.182;9.144;2023-06-10T10:34:04;8.05;;;6.30;;
80421;SDS011;69763;50.182;9.144;2023-06-10T10:36:34;6.85;;;5.22;;
80421;SDS011;69763;50.182;9.144;2023-06-10T10:39:00;8.15;;;7.22;;
80421;SDS011;69763;50.182;9.144;2023-06-10T10:43:52;5.65;;;4.82;;
80421;SDS011;69763;50.182;9.144;2023-06-10T10:46:19;6.82;;;5.20;;
80421;SDS011;69763;50.182;9.144;2023-06-10T10:51:11;9.55;;;5.68;;
80421;SDS011;69763;50.182;9.144;2023-06-10T10:56:04;7.00;;;5.43;;
80421;SDS011;69763;50.182;9.144;2023-06-10T10:58:31;7.60;;;5.88;;
80421;SDS011;69763;50.182;9.144;2023-06-10T11:03:24;7.03;;;4.97;;
80421;SDS011;69763;50.182;9.144;2023-06-10T11:05:53;6.35;;;4.85;;
80421;SDS011;69763;50.182;9.144;2023-06-10T11:11:17;8.35;;;5.18;;
80421;SDS011;69763;50.182;9.144;2023-06-10T11:13:51;6.43;;;5.25;;
80421;SDS011;69763;50.182;9.144;2023-06-10T11:16:24;13.60;;;5.18;;
80421;SDS011;69763;50.182;9.144;2023-06-10T11:18:51;6.82;;;5.22;;
80421;SDS011;69763;50.182;9.144;2023-06-10T11:21:18;7.18;;;5.47;;
80421;SDS011;69763;50.182;9.144;2023-06-10T11:26:10;6.10;;;4.97;;
80421;SDS011;69763;50.182;9.144;2023-06-10T11:28:36;7.13;;;5.20;;
80421;SDS011;69763;50.182;9.144;2023-06-10T11:33:28;8.13;;;4.77;;
80421;SDS011;69763;50.182;9.144;2023-06-10T11:35:53;9.18;;;5.82;;
80421;SDS011;69763;50.182;9.144;2023-06-10T11:40:46;6.20;;;4.60;;
80421;SDS011;69763;50.182;9.144;2023-06-10T11:43:13;6.20;;;4.35;;
80421;SDS011;69763;50.182;9.144;2023-06-10T11:48:05;5.47;;;4.32;;
80421;SDS011;69763;50.182;9.144;2023-06-10T11:52:58;5.50;;;4.40;;
80421;SDS011;69763;50.182;9.144;2023-06-10T11:57:49;5.35;;;4.15;;
80421;SDS011;69763;50.182;9.144;2023-06-10T12:00:15;9.35;;;4.72;;
80421;SDS011;69763;50.182;9.144;2023-06-10T12:02:41;6.25;;;4.93;;
80421;SDS011;69763;50.182;9.144;2023-06-10T12:05:09;8.75;;;4.93;;
80421;SDS011;69763;50.182;9.144;2023-06-10T12:07:37;8.02;;;4.97;;
80421;SDS011;69763;50.182;9.144;2023-06-10T12:10:02;6.95;;;4.90;;
80421;SDS011;69763;50.182;9.144;2023-06-10T12:12:28;7.35;;;4.38;;
80421;SDS011;69763;50.182;9.144;2023-06-10T12:14:53;9.10;;;5.53;;
80421;SDS011;69763;50.182;9.144;2023-06-10T12:17:20;6.38;;;4.80;;
80421;SDS011;69763;50.182;9.144;2023-06-10T12:19:46;7.57;;;4.80;;
80421;SDS011;69763;50.182;9.144;2023-06-10T12:22:12;6.22;;;4.80;;
80421;SDS011;69763;50.182;9.144;2023-06-10T12:24:44;5.85;;;4.65;;
80421;SDS011;69763;50.182;9.144;2023-06-10T12:27:10;5.75;;;4.13;;
80421;SDS011;69763;50.182;9.144;2023-06-10T12:29:36;7.40;;;4.07;;
80421;SDS011;69763;50.182;9.144;2023-06-10T12:32:02;5.68;;;4.70;;
80421;SDS011;69763;50.182;9.144;2023-06-10T12:34:30;6.63;;;3.88;;
80421;SDS011;69763;50.182;9.144;2023-06-10T12:36:56;8.52;;;3.42;;
80421;SDS011;69763;50.182;9.144;2023-06-10T12:39:22;6.57;;;3.63;;
80421;SDS011;69763;50.182;9.144;2023-06-10T12:41:48;7.05;;;4.60;;
80421;SDS011;69763;50.182;9.144;2023-06-10T12:44:14;8.05;;;4.18;;
80421;SDS011;69763;50.182;9.144;2023-06-10T12:46:40;7.32;;;4.40;;
80421;SDS011;69763;50.182;9.144;2023-06-10T12:51:30;5.97;;;4.13;;
80421;SDS011;69763;50.182;9.144;2023-06-10T12:56:21;6.17;;;4.50;;
80421;SDS011;69763;50.182;9.144;2023-06-10T13:01:13;6.18;;;3.75;;
80421;SDS011;69763;50.182;9.144;2023-06-10T13:06:03;8.17;;;3.33;;
80421;SDS011;69763;50.182;9.144;2023-06-10T13:10:54;3.93;;;3.17;;
80421;SDS011;69763;50.182;9.144;2023-06-10T13:13:19;5.38;;;3.40;;
80421;SDS011;69763;50.182;9.144;2023-06-10T13:15:46;4.30;;;3.40;;
80421;SDS011;69763;50.182;9.144;2023-06-10T13:18:11;5.35;;;3.60;;
80421;SDS011;69763;50.182;9.144;2023-06-10T13:23:02;5.53;;;3.73;;
80421;SDS011;69763;50.182;9.144;2023-06-10T13:25:27;5.50;;;3.92;;
80421;SDS011;69763;50.182;9.144;2023-06-10T13:27:53;5.70;;;3.72;;
80421;SDS011;69763;50.182;9.144;2023-06-10T13:30:18;5.70;;;3.67;;
80421;SDS011;69763;50.182;9.144;2023-06-10T13:32:45;6.68;;;3.92;;
80421;SDS011;69763;50.182;9.144;2023-06-10T13:35:10;5.55;;;3.70;;
80421;SDS011;69763;50.182;9.144;2023-06-10T13:37:35;6.60;;;4.82;;
80421;SDS011;69763;50.182;9.144;2023-06-10T13:40:01;13.23;;;5.10;;
80421;SDS011;69763;50.182;9.144;2023-06-10T13:42:27;7.93;;;4.40;;
80421;SDS011;69763;50.182;9.144;2023-06-10T13:47:17;5.43;;;4.10;;
80421;SDS011;69763;50.182;9.144;2023-06-10T13:52:09;5.50;;;3.80;;
80421;SDS011;69763;50.182;9.144;2023-06-10T13:57:00;5.93;;;3.73;;
80421;SDS011;69763;50.182;9.144;2023-06-10T13:59:25;4.70;;;3.53;;
80421;SDS011;69763;50.182;9.144;2023-06-10T14:04:16;6.33;;;3.97;;
80421;SDS011;69763;50.182;9.144;2023-06-10T14:09:07;6.28;;;3.80;;
80421;SDS011;69763;50.182;9.144;2023-06-10T14:13:58;5.73;;;4.10;;
80421;SDS011;69763;50.182;9.144;2023-06-10T14:18:49;5.45;;;3.50;;
80421;SDS011;69763;50.182;9.144;2023-06-10T14:21:14;5.40;;;3.70;;
80421;SDS011;69763;50.182;9.144;2023-06-10T14:23:41;7.20;;;3.80;;
80421;SDS011;69763;50.182;9.144;2023-06-10T14:26:06;4.95;;;3.88;;
80421;SDS011;69763;50.182;9.144;2023-06-10T14:28:32;6.90;;;5.20;;
80421;SDS011;69763;50.182;9.144;2023-06-10T14:30:57;9.43;;;4.10;;
80421;SDS011;69763;50.182;9.144;2023-06-10T14:33:22;6.75;;;4.00;;
80421;SDS011;69763;50.182;9.144;2023-06-10T14:35:48;5.30;;;3.85;;
80421;SDS011;69763;50.182;9.144;2023-06-10T14:38:13;6.65;;;4.18;;
80421;SDS011;69763;50.182;9.144;2023-06-10T14:40:40;7.05;;;4.25;;
80421;SDS011;69763;50.182;9.144;2023-06-10T14:43:06;6.72;;;4.00;;
80421;SDS011;69763;50.182;9.144;2023-06-10T14:45:31;5.97;;;4.32;;
80421;SDS011;69763;50.182;9.144;2023-06-10T14:47:56;7.30;;;4.37;;
80421;SDS011;69763;50.182;9.144;2023-06-10T14:50:22;6.78;;;4.00;;
80421;SDS011;69763;50.182;9.144;2023-06-10T14:52:47;5.85;;;4.22;;
80421;SDS011;69763;50.182;9.144;2023-06-10T14:55:12;4.93;;;4.22;;
80421;SDS011;69763;50.182;9.144;2023-06-10T14:57:39;5.40;;;4.53;;
80421;SDS011;69763;50.182;9.144;2023-06-10T15:00:05;7.97;;;4.78;;
80421;SDS011;69763;50.182;9.144;2023-06-10T15:02:31;5.25;;;3.83;;
80421;SDS011;69763;50.182;9.144;2023-06-10T15:04:57;6.53;;;4.32;;
80421;SDS011;69763;50.182;9.144;2023-06-10T15:07:22;6.80;;;4.25;;
80421;SDS011;69763;50.182;9.144;2023-06-10T15:09:47;5.85;;;4.05;;
80421;SDS011;69763;50.182;9.144;2023-06-10T15:12:13;11.50;;;4.60;;
80421;SDS011;69763;50.182;9.144;2023-06-10T15:14:40;4.40;;;3.53;;
80421;SDS011;69763;50.182;9.144;2023-06-10T15:17:05;8.60;;;3.67;;
80421;SDS011;69763;50.182;9.144;2023-06-10T15:19:30;6.68;;;4.63;;
80421;SDS011;69763;50.182;9.144;2023-06-10T15:21:56;6.47;;;4.45;;
80421;SDS011;69763;50.182;9.144;2023-06-10T15:24:21;6.32;;;4.18;;
80421;SDS011;69763;50.182;9.144;2023-06-10T15:26:46;8.60;;;4.82;;
80421;SDS011;69763;50.182;9.144;2023-06-10T15:29:12;6.35;;;4.25;;
80421;SDS011;69763;50.182;9.144;2023-06-10T15:31:38;6.82;;;4.65;;
80421;SDS011;69763;50.182;9.144;2023-06-10T15:34:04;6.78;;;4.22;;
80421;SDS011;69763;50.182;9.144;2023-06-10T15:36:29;5.57;;;4.20;;
80421;SDS011;69763;50.182;9.144;2023-06-10T15:38:55;6.30;;;3.67;;
80421;SDS011;69763;50.182;9.144;2023-06-10T15:41:26;5.65;;;4.28;;